Time;durP1;ratioP1;P1;durP2;ratioP2;P2;SDS_P1;SDS_P2;PMS_P1;PMS_P2;Temp;Humidity;BMP_temperature;BMP_pressure;BME280_temperature;BME280_humidity;BME280_pressure;Samples;Min_cycle;Max_cycle;Signal;HPM_P1;HPM_P2
2023/12/10 00:00:26;;;;;;;24.70;13.20;;;;;;;-1.41;100.00;97195.94;110542;1242;59694;-62
2023/12/10 00:03:16;;;;;;;23.00;12.60;;;;;;;-1.43;100.00;97190.33;110601;1241;70634;-62
2023/12/10 00:05:45;;;;;;;20.60;11.30;;;;;;;-1.42;100.00;97187.59;110535;1243;68756;-62
2023/12/10 00:08:21;;;;;;;19.00;10.80;;;;;;;-1.44;100.00;97188.30;110432;1247;69851;-62
2023/12/10 00:10:50;;;;;;;26.40;12.30;;;;;;;-1.45;100.00;97190.21;110512;1240;59679;-62
2023/12/10 00:13:21;;;;;;;23.50;12.60;;;;;;;-1.44;100.00;97184.38;110498;1249;59670;-62
2023/12/10 00:15:51;;;;;;;22.10;12.10;;;;;;;-1.43;100.00;97178.70;110447;1239;70455;-62
2023/12/10 00:18:20;;;;;;;22.00;12.60;;;;;;;-1.42;100.00;97178.50;110472;1243;68705;-62
2023/12/10 00:20:50;;;;;;;19.80;10.90;;;;;;;-1.43;100.00;97174.77;110485;1241;67408;-62
2023/12/10 00:23:21;;;;;;;21.00;11.20;;;;;;;-1.45;100.00;97172.09;110436;1242;59698;-62
2023/12/10 00:25:51;;;;;;;22.80;12.60;;;;;;;-1.48;100.00;97171.84;110469;1242;60015;-62
2023/12/10 00:28:21;;;;;;;22.00;12.60;;;;;;;-1.50;100.00;97176.69;110521;1240;72114;-62
2023/12/10 00:30:52;;;;;;;18.60;10.90;;;;;;;-1.52;100.00;97183.42;110529;1238;69107;-62
2023/12/10 00:33:22;;;;;;;;;;;;;;;-1.53;100.00;97183.95;110534;1249;69252;-62
2023/12/10 00:35:53;;;;;;;15.80;9.70;;;;;;;-1.55;100.00;97189.46;110512;1241;59692;-62
2023/12/10 00:38:23;;;;;;;16.60;9.70;;;;;;;-1.59;100.00;97196.41;110556;1239;59734;-62
2023/12/10 00:40:53;;;;;;;17.00;8.70;;;;;;;-1.61;100.00;97191.86;110152;1245;71095;-62
2023/12/10 00:43:24;;;;;;;18.70;10.50;;;;;;;-1.59;100.00;97185.14;110508;1241;69226;-62
2023/12/10 00:45:54;;;;;;;19.40;10.80;;;;;;;-1.58;100.00;97181.02;110395;1242;69233;-62
2023/12/10 00:48:26;;;;;;;15.00;9.00;;;;;;;-1.58;100.00;97179.29;110391;1242;59743;-62
2023/12/10 00:50:56;;;;;;;19.10;10.40;;;;;;;-1.57;100.00;97171.42;110428;1242;59667;-62
2023/12/10 00:53:25;;;;;;;;;;;;;;;-1.56;100.00;97163.71;110435;1242;71438;-62
2023/12/10 00:55:56;;;;;;;;;;;;;;;-1.57;100.00;97159.80;110431;1242;69825;-62
2023/12/10 00:58:27;;;;;;;;;;;;;;;-1.55;100.00;97152.39;110379;1244;69200;-62
2023/12/10 01:00:59;;;;;;;;;;;;;;;-1.55;100.00;97149.13;110489;1243;59722;-62
2023/12/10 01:03:29;;;;;;;;;;;;;;;-1.56;100.00;97152.07;110505;1242;59738;-62
2023/12/10 01:05:59;;;;;;;;;;;;;;;-1.54;100.00;97149.63;110386;1241;71390;-62
2023/12/10 01:08:30;;;;;;;;;;;;;;;-1.55;100.00;97150.32;110386;1242;68301;-62
2023/12/10 01:11:02;;;;;;;;;;;;;;;-1.54;100.00;97149.10;110354;1242;69774;-62
2023/12/10 01:13:32;;;;;;;;;;;;;;;-1.54;100.00;97146.04;110349;1242;59744;-62
2023/12/10 01:16:04;;;;;;;;;;;;;;;-1.54;100.00;97148.09;110411;1241;59699;-62
2023/12/10 01:18:37;;;;;;;;;;;;;;;-1.50;100.00;97144.91;110352;1242;71624;-62
2023/12/10 01:21:10;;;;;;;;;;;;;;;-1.48;100.00;97144.48;110328;1241;68468;-62
2023/12/10 01:23:40;;;;;;;;;;;;;;;-1.48;100.00;97142.77;110436;1241;68749;-62
2023/12/10 01:26:12;;;;;;;;;;;;;;;-1.47;100.00;97138.15;110409;1242;59735;-62
2023/12/10 01:28:45;;;;;;;;;;;;;;;-1.47;100.00;97139.52;110466;1241;59656;-62
2023/12/10 01:31:16;;;;;;;;;;;;;;;-1.47;100.00;97133.55;110363;1242;71423;-62
2023/12/10 01:33:46;;;;;;;;;;;;;;;-1.45;100.00;97133.45;110448;1242;69746;-62
2023/12/10 01:36:22;;;;;;;;;;;;;;;-1.42;100.00;97130.46;110372;1242;69330;-62
2023/12/10 01:38:52;;;;;;;;;;;;;;;-1.38;100.00;97125.73;110466;1242;59649;-62
2023/12/10 01:41:23;;;;;;;;;;;;;;;-1.38;100.00;97128.80;110426;1241;59743;-62
2023/12/10 01:43:54;;;;;;;;;;;;;;;-1.38;100.00;97127.27;110466;1242;70851;-62
2023/12/10 01:46:24;;;;;;;;;;;;;;;-1.35;100.00;97116.23;110499;1242;68708;-62
2023/12/10 01:48:55;;;;;;;;;;;;;;;-1.35;100.00;97109.41;110602;1242;68337;-62
2023/12/10 01:51:26;;;;;;;;;;;;;;;-1.35;100.00;97104.95;110425;1242;59694;-62
2023/12/10 01:53:56;;;;;;;;;;;;;;;-1.34;100.00;97099.46;109385;1242;1434674;-62
2023/12/10 01:56:28;;;;;;;;;;;;;;;-1.32;100.00;97097.52;110309;1242;71406;-62
2023/12/10 01:58:58;;;;;;;;;;;;;;;-1.34;100.00;97096.55;110489;1238;68740;-62
2023/12/10 02:01:29;;;;;;;;;;;;;;;-1.31;100.00;97084.14;110497;1244;69441;-62
2023/12/10 02:03:59;;;;;;;;;;;;;;;-1.31;100.00;97085.19;110511;1242;59666;-62
2023/12/10 02:06:29;;;;;;;;;;;;;;;-1.32;100.00;97079.91;110525;1241;59752;-62
2023/12/10 02:09:09;;;;;;;;;;;;;;;-1.32;100.00;97079.39;110471;1238;71643;-62
2023/12/10 02:11:41;;;;;;;;;;;;;;;-1.35;100.00;97071.59;110429;1241;67339;-62
2023/12/10 02:14:11;;;;;;;;;;;;;;;-1.38;100.00;97075.14;110610;1238;69214;-62
2023/12/10 02:16:43;;;;;;;;;;;;;;;-1.39;100.00;97073.96;110484;1242;59670;-62
2023/12/10 02:19:14;;;;;;;;;;;;;;;-1.41;100.00;97073.00;110398;1242;59627;-62
2023/12/10 02:21:50;;;;;;;;;;;;;;;-1.42;100.00;97066.40;110390;1240;71348;-62
2023/12/10 02:24:26;;;;;;;;;;;;;;;-1.43;100.00;97060.42;110411;1241;69249;-62
2023/12/10 02:26:59;;;;;;;;;;;;;;;-1.44;100.00;97055.98;110523;1242;69216;-62
2023/12/10 02:29:30;;;;;;;;;;;;;;;-1.44;100.00;97052.56;110454;1243;59689;-62
2023/12/10 02:32:04;;;;;;;;;;;;;;;-1.44;100.00;97058.23;110488;1243;59675;-62
2023/12/10 02:34:36;;;;;;;;;;;;;;;-1.43;100.00;97056.65;110454;1247;71591;-62
2023/12/10 02:37:07;;;;;;;;;;;;;;;-1.42;100.00;97052.52;110464;1242;69273;-62
2023/12/10 02:39:38;;;;;;;;;;;;;;;-1.40;100.00;97047.33;110531;1241;67974;-62
2023/12/10 02:42:11;;;;;;;;;;;;;;;-1.36;100.00;97046.36;110459;1244;59723;-62
2023/12/10 02:44:41;;;;;;;;;;;;;;;-1.34;100.00;97046.12;110398;1241;59714;-62
2023/12/10 02:47:12;;;;;;;;;;;;;;;-1.33;100.00;97046.77;110362;1240;71420;-62
2023/12/10 02:49:42;;;;;;;;;;;;;;;-1.32;100.00;97049.46;110368;1240;69935;-62
2023/12/10 02:52:11;;;;;;;;;;;;;;;-1.29;100.00;97051.80;110357;1241;69865;-62
2023/12/10 02:54:44;;;;;;;;;;;;;;;-1.30;100.00;97056.06;110254;1242;59686;-62
2023/12/10 02:57:16;;;;;;;;;;;;;;;-1.30;100.00;97056.91;110387;1242;59691;-62
2023/12/10 02:59:46;;;;;;;;;;;;;;;-1.30;100.00;97054.02;110339;1241;71384;-62
2023/12/10 03:02:17;;;;;;;;;;;;;;;-1.27;100.00;97054.11;110367;1240;68497;-62
2023/12/10 03:04:47;;;;;;;;;;;;;;;-1.26;100.00;97054.95;110367;1241;69309;-62
2023/12/10 03:07:17;;;;;;;;;;;;;;;-1.25;100.00;97058.84;110411;1242;60139;-62
2023/12/10 03:09:48;;;;;;;;;;;;;;;-1.23;100.00;97052.98;110382;1241;59688;-62
2023/12/10 03:12:23;;;;;;;;;;;;;;;-1.23;100.00;97057.58;110356;1242;71235;-62
2023/12/10 03:14:54;;;;;;;;;;;;;;;-1.21;100.00;97059.88;110363;1241;68613;-62
2023/12/10 03:17:27;;;;;;;;;;;;;;;-1.17;100.00;97052.60;110233;1243;68694;-62
2023/12/10 03:19:57;;;;;;;;;;;;;;;-1.16;100.00;97051.86;110384;1242;59698;-62
2023/12/10 03:22:32;;;;;;;;;;;;;;;-1.16;100.00;97056.83;110316;1241;59668;-62
2023/12/10 03:25:05;;;;;;;;;;;;;;;-1.17;100.00;97055.31;110393;1241;70948;-61
2023/12/10 03:27:35;;;;;;;;;;;;;;;-1.18;100.00;97056.90;110351;1241;69277;-61
2023/12/10 03:30:18;;;;;;;;;;;;;;;-1.20;100.00;97058.00;110385;1240;68147;-61
2023/12/10 03:32:56;;;;;;;;;;;;;;;-1.20;100.00;97058.67;110305;1241;59740;-61
2023/12/10 03:35:29;;;;;;;;;;;;;;;-1.18;100.00;97061.36;110378;1243;59683;-61
2023/12/10 03:38:01;;;;;;;;;;;;;;;-1.18;100.00;97060.84;110292;1242;71429;-61
2023/12/10 03:40:33;;;;;;;;;;;;;;;-1.19;100.00;97059.49;110421;1243;69134;-61
2023/12/10 03:43:04;;;;;;;;;;;;;;;-1.17;100.00;97058.56;110427;1238;69193;-61
2023/12/10 03:45:36;;;;;;;;;;;;;;;-1.14;100.00;97055.73;110397;1240;59734;-62
2023/12/10 03:48:06;;;;;;;;;;;;;;;-1.11;100.00;97061.98;110348;1241;59716;-61
2023/12/10 03:50:38;;;;;;;;;;;;;;;-1.08;100.00;97065.48;110374;1241;71225;-61
2023/12/10 03:53:07;;;;;;;;;;;;;;;-1.07;100.00;97071.06;110380;1241;69226;-62
2023/12/10 03:55:38;;;;;;;;;;;;;;;-1.05;100.00;97064.51;110382;1238;67359;-62
2023/12/10 03:58:09;;;;;;;;;;;;;;;-1.03;100.00;97064.96;110324;1241;59689;-61
2023/12/10 04:00:39;;;;;;;;;;;;;;;-1.04;100.00;97064.30;110405;1241;59722;-61
2023/12/10 04:03:11;;;;;;;;;;;;;;;-1.05;100.00;97062.14;110383;1238;70691;-61
2023/12/10 04:05:42;;;;;;;;;;;;;;;-1.08;100.00;97051.10;110370;1241;69700;-61
2023/12/10 04:08:12;;;;;;;;;;;;;;;-1.11;100.00;97051.20;110477;1241;69190;-62
2023/12/10 04:10:42;;;;;;;;;;;;;;;-1.11;100.00;97051.55;110553;1240;59672;-63
2023/12/10 04:13:15;;;;;;;;;;;;;;;-1.12;100.00;97056.55;110455;1241;59977;-64
2023/12/10 04:15:46;;;;;;;;;;;;;;;-1.12;100.00;97057.40;110480;1240;71217;-61
2023/12/10 04:18:16;;;;;;;;;;;;;;;-1.12;100.00;97057.23;110402;1242;68673;-61
2023/12/10 04:20:47;;;;;;;;;;;;;;;-1.13;100.00;97057.41;110582;1243;69132;-61
2023/12/10 04:23:21;;;;;;;;;;;;;;;-1.15;100.00;97058.34;110580;1241;59769;-61
2023/12/10 04:25:51;;;;;;;;;;;;;;;-1.16;100.00;97052.71;110444;1240;59676;-61
2023/12/10 04:28:26;;;;;;;;;;;;;;;-1.15;100.00;97049.11;110394;1240;71476;-61
2023/12/10 04:30:56;;;;;;;;;;;;;;;-1.14;100.00;97051.47;110449;1241;69084;-61
2023/12/10 04:33:25;;;;;;;;;;;;;;;-1.14;100.00;97049.08;110466;1240;68739;-61
2023/12/10 04:35:56;;;;;;;;;;;;;;;-1.19;100.00;97048.21;110437;1242;59735;-63
2023/12/10 04:38:28;;;;;;;;;;;;;;;-1.20;100.00;97040.55;110339;1242;59660;-62
2023/12/10 04:40:58;;;;;;;;;;;;;;;-1.18;100.00;97039.28;110512;1241;70414;-61
2023/12/10 04:43:29;;;;;;;;;;;;;;;-1.17;100.00;97037.70;110419;1242;68535;-62
2023/12/10 04:45:58;;;;;;;;;;;;;;;-1.16;100.00;97038.19;110519;1241;69425;-62
2023/12/10 04:48:28;;;;;;;;;;;;;;;-1.15;100.00;97037.65;110514;1243;59726;-62
2023/12/10 04:50:59;;;;;;;;;;;;;;;-1.15;100.00;97040.41;110386;1242;59668;-62
2023/12/10 04:53:29;;;;;;;;;;;;;;;-1.15;100.00;97035.77;110488;1241;70428;-62
2023/12/10 04:56:01;;;;;;;;;;;;;;;-1.15;100.00;97036.29;110385;1240;69103;-62
2023/12/10 04:58:31;;;;;;;;;;;;;;;-1.15;100.00;97041.25;110414;1241;69284;-62
2023/12/10 05:01:02;;;;;;;;;;;;;;;-1.16;100.00;97034.94;110364;1241;59715;-62
2023/12/10 05:03:33;;;;;;;;;;;;;;;-1.17;100.00;97029.50;110389;1240;59750;-62
2023/12/10 05:06:03;;;;;;;;;;;;;;;-1.18;100.00;97026.95;110422;1238;72059;-62
2023/12/10 05:08:33;;;;;;;;;;;;;;;-1.22;100.00;97023.52;110472;1238;68471;-62
2023/12/10 05:11:03;;;;;;;;;;;;;;;-1.26;100.00;97022.45;110376;1242;69259;-62
2023/12/10 05:13:33;;;;;;;;;;;;;;;-1.28;100.00;97014.48;110348;1243;59687;-62
2023/12/10 05:16:03;;;;;;;;;;;;;;;-1.30;100.00;97014.89;110389;1240;59664;-62
2023/12/10 05:18:33;;;;;;;;;;;;;;;-1.27;100.00;97017.69;110388;1240;70820;-62
2023/12/10 05:21:03;;;;;;;;;;;;;;;-1.26;100.00;97021.77;110507;1241;68349;-62
2023/12/10 05:23:32;;;;;;;;;;;;;;;-1.24;100.00;97017.77;110377;1241;70251;-62
2023/12/10 05:26:03;;;;;;;;;;;;;;;-1.22;100.00;97017.88;110487;1238;59741;-62
2023/12/10 05:28:32;;;;;;;;;;;;;;;-1.22;100.00;97019.76;110399;1240;59734;-62
2023/12/10 05:31:02;;;;;;;;;;;;;;;-1.23;100.00;97015.69;110376;1241;71337;-62
2023/12/10 05:33:33;;;;;;;;;;;;;;;-1.23;100.00;97011.77;110395;1238;68486;-62
2023/12/10 05:36:03;;;;;;;;;;;;;;;-1.25;100.00;97012.48;110379;1238;69223;-62
2023/12/10 05:38:33;;;;;;;;;;;;;;;-1.26;100.00;97008.08;110385;1242;60121;-62
2023/12/10 05:41:03;;;;;;;;;;;;;;;-1.27;100.00;97005.90;110415;1241;59737;-62
2023/12/10 05:43:32;;;;;;;;;;;;;;;-1.27;100.00;97005.21;110396;1240;72071;-62
2023/12/10 05:46:02;;;;;;;;;;;;;;;-1.29;100.00;97003.05;110436;1240;69752;-62
2023/12/10 05:48:33;;;;;;;;;;;;;;;-1.32;100.00;97001.08;110373;1241;69339;-62
2023/12/10 05:51:03;;;;;;;;;;;;;;;-1.36;100.00;97001.06;110394;1238;59737;-62
2023/12/10 05:53:33;;;;;;;;;;;;;;;-1.38;100.00;97003.66;110413;1241;59676;-62
2023/12/10 05:56:03;;;;;;;;;;;;;;;-1.38;100.00;97005.40;110365;1238;71393;-62
2023/12/10 05:58:33;;;;;;;;;;;;;;;-1.38;100.00;97007.29;110389;1241;69699;-62
2023/12/10 06:01:03;;;;;;;;;;;;;;;-1.39;100.00;97009.86;110492;1241;68185;-62
2023/12/10 06:03:32;;;;;;;;;;;;;;;-1.40;100.00;97013.15;110503;1238;60132;-61
2023/12/10 06:06:02;;;;;;;;;;;;;;;-1.41;100.00;97014.88;110457;1241;59704;-61
2023/12/10 06:08:32;;;;;;;;;;;;;;;-1.42;100.00;97019.72;110517;1240;71368;-61
2023/12/10 06:11:02;;;;;;;;;;;;;;;-1.47;100.00;97029.43;110445;1241;69289;-61
2023/12/10 06:13:32;;;;;;;;;;;;;;;-1.51;100.00;97026.85;110436;1241;69113;-61
2023/12/10 06:16:01;;;;;;;;;;;;;;;-1.52;100.00;97023.63;110365;1238;60094;-61
2023/12/10 06:18:30;;;;;;;;;;;;;;;-1.55;100.00;97029.50;110474;1238;59657;-61
2023/12/10 06:20:59;;;;;;;;;;;;;;;-1.60;100.00;97024.70;110551;1241;71363;-61
2023/12/10 06:23:29;;;;;;;;;;;;;;;-1.61;100.00;97025.41;110428;1241;69217;-61
2023/12/10 06:25:57;;;;;;;;;;;;;;;-1.59;100.00;97027.55;110527;1240;69109;-61
2023/12/10 06:28:26;;;;;;;;;;;;;;;-1.55;100.00;97028.66;110465;1238;59693;-62
2023/12/10 06:30:57;;;;;;;;;;;;;;;-1.53;100.00;97027.41;110424;1240;59668;-61
2023/12/10 06:33:26;;;;;;;;;;;;;;;-1.50;100.00;97027.84;110446;1238;71964;-61
2023/12/10 06:35:55;;;;;;;;;;;;;;;-1.45;100.00;97032.27;110489;1238;69268;-61
2023/12/10 06:38:24;;;;;;;;;;;;;;;-1.43;100.00;97034.09;110412;1241;69311;-61
2023/12/10 06:40:54;;;;;;;;;;;;;;;-1.45;100.00;97041.01;110419;1240;60121;-61
2023/12/10 06:43:26;;;;;;;;;;;;;;;-1.46;100.00;97042.56;110546;1241;59669;-61
2023/12/10 06:45:58;;;;;;;;;;;;;;;-1.39;100.00;97040.48;110453;1241;71383;-61
2023/12/10 06:48:27;;;;;;;;;;;;;;;-1.37;100.00;97042.28;110456;1241;69185;-63
2023/12/10 06:50:57;;;;;;;;;;;;;;;-1.39;100.00;97048.85;110482;1238;68275;-61
2023/12/10 06:53:25;;;;;;;;;;;;;;;-1.37;100.00;97051.70;110468;1238;59728;-61
2023/12/10 06:55:54;;;;;;;;;;;;;;;-1.39;100.00;97056.52;110512;1240;59673;-61
2023/12/10 06:58:23;;;;;;;;;;;;;;;-1.36;100.00;97056.27;110570;1241;70315;-61
2023/12/10 07:00:53;;;;;;;;;;;;;;;-1.47;100.00;97052.84;110539;1238;69606;-61
2023/12/10 07:03:22;;;;;;;;;;;;;;;-1.45;100.00;97053.32;110503;1240;68476;-61
2023/12/10 07:05:51;;;;;;;;;;;;;;;-1.40;100.00;97056.90;110546;1241;59817;-62
2023/12/10 07:08:20;;;;;;;;;;;;;;;-1.36;100.00;97059.52;110525;1248;59665;-62
2023/12/10 07:10:49;;;;;;;;;;;;;;;-1.26;100.00;97061.10;110734;1242;72034;-62
2023/12/10 07:13:18;;;;;;;;;;;;;;;-1.27;100.00;97058.05;110617;1241;69862;-61
2023/12/10 07:15:47;;;;;;;;;;;;;;;-1.31;100.00;97059.88;110533;1241;69181;-63
2023/12/10 07:18:16;;;;;;;;;;;;;;;-1.35;100.00;97059.48;110515;1241;60118;-61
2023/12/10 07:20:46;;;;;;;;;;;;;;;-1.31;100.00;97055.09;110537;1241;59668;-64
2023/12/10 07:23:15;;;;;;;;;;;;;;;-1.22;100.00;97052.60;110624;1240;71445;-63
2023/12/10 07:25:45;;;;;;;;;;;;;;;-1.16;100.00;97050.86;110496;1242;68462;-62
2023/12/10 07:28:14;;;;;;;;;;;;;;;-1.08;100.00;97046.48;110375;1238;69265;-62
2023/12/10 07:30:42;;;;;;;;;;;;;;;-1.01;100.00;97051.05;110529;1240;59698;-62
2023/12/10 07:33:12;;;;;;;;;;;;;;;-0.93;100.00;97054.56;110424;1241;59741;-61
2023/12/10 07:35:42;;;;;;;;;;;;;;;-0.83;100.00;97055.42;110354;1238;71357;-62
2023/12/10 07:38:11;;;;;;;;;;;;;;;-0.76;100.00;97051.59;110426;1241;69819;-62
2023/12/10 07:40:40;;;;;;;;;;;;;;;-0.74;100.00;97057.34;110404;1242;70248;-62
2023/12/10 07:43:09;;;;;;;;;;;;;;;-0.76;100.00;97060.31;110382;1241;59683;-63
2023/12/10 07:45:39;;;;;;;;;;;;;;;-0.81;100.00;97063.58;110423;1241;59676;-62
2023/12/10 07:48:09;;;;;;;;;;;;;;;-0.76;100.00;97062.20;110454;1241;71350;-62
2023/12/10 07:50:38;;;;;;;;;;;;;;;-0.69;100.00;97058.54;110437;1240;68543;-62
2023/12/10 07:53:08;;;;;;;;;;;;;;;-0.68;100.00;97062.63;110381;1238;69946;-62
2023/12/10 07:55:37;;;;;;;;;;;;;;;-0.60;100.00;97071.95;110468;1241;59709;-62
2023/12/10 07:58:06;;;;;;;;;;;;;;;-0.63;100.00;97069.29;110401;1240;59677;-62
2023/12/10 08:00:38;;;;;;;;;;;;;;;-0.63;100.00;97068.44;110383;1239;71369;-62
2023/12/10 08:03:08;;;;;;;;;;;;;;;-0.56;100.00;97073.00;110567;1238;69858;-63
2023/12/10 08:05:37;;;;;;;;;;;;;;;-0.52;100.00;97074.41;110524;1240;69702;-62
2023/12/10 08:08:06;;;;;;;;;;;;;;;-0.51;100.00;97077.43;110366;1241;59695;-62
2023/12/10 08:10:34;;;;;;;;;;;;;;;-0.48;100.00;97084.72;110388;1238;59672;-61
2023/12/10 08:13:03;;;;;;;;;;;;;;;-0.45;100.00;97086.33;110488;1242;71816;-61
2023/12/10 08:15:32;;;;;;;;;;;;;;;-0.44;100.00;97083.03;110531;1240;69796;-62
2023/12/10 08:18:01;;;;;;;;;;;;;;;-0.44;100.00;97086.66;110454;1238;69119;-62
2023/12/10 08:20:31;;;;;;;;;;;;;;;-0.46;100.00;97092.35;110513;1238;59705;-61
2023/12/10 08:23:00;;;;;;;;;;;;;;;-0.50;100.00;97091.98;110431;1238;59749;-62
2023/12/10 08:25:29;;;;;;;;;;;;;;;-0.42;100.00;97084.50;110347;1240;71969;-61
2023/12/10 08:27:59;;;;;;;;;;;;;;;-0.37;100.00;97084.35;110413;1238;69741;-62
2023/12/10 08:30:29;;;;;;;;;;;;;;;-0.28;100.00;97086.77;110455;1238;69223;-62
2023/12/10 08:32:57;;;;;;;;;;;;;;;-0.21;100.00;97085.68;110498;1241;59791;-62
2023/12/10 08:35:26;;;;;;;;;;;;;;;-0.16;100.00;97084.63;110589;1242;59636;-62
2023/12/10 08:37:56;;;;;;;;;;;;;;;-0.10;100.00;97081.86;110484;1242;70681;-62
2023/12/10 08:40:24;;;;;;;;;;;;;;;-0.04;100.00;97085.41;110509;1240;69713;-62
2023/12/10 08:42:53;;;;;;;;;;;;;;;0.01;100.00;97084.21;110479;1242;69861;-62
2023/12/10 08:45:22;;;;;;;;;;;;;;;0.03;100.00;97083.10;110452;1238;59676;-61
2023/12/10 08:47:51;;;;;;;;;;;;;;;0.05;100.00;97079.11;110304;1242;59689;-61
2023/12/10 08:50:21;;;;;;;;;;;;;;;0.14;100.00;97083.56;110604;1241;70398;-61
2023/12/10 08:52:50;;;;;;;;;;;;;;;0.19;100.00;97084.40;110575;1241;69054;-61
2023/12/10 08:55:19;;;;;;;;;;;;;;;0.20;100.00;97086.44;110519;1241;69117;-62
2023/12/10 08:57:48;;;;;;;;;;;;;;;0.21;100.00;97085.70;110357;1240;59699;-61
2023/12/10 09:00:17;;;;;;;;;;;;;;;0.04;100.00;97085.13;110399;1241;59683;-61
2023/12/10 09:02:46;;;;;;;;;;;;;;;0.06;100.00;97079.58;110369;1238;72005;-61
2023/12/10 09:05:15;;;;;;;;;;;;;;;0.15;100.00;97073.58;110272;1242;69217;-62
2023/12/10 09:07:44;;;;;;;;;;;;;;;0.30;100.00;97069.61;110474;1241;69916;-61
2023/12/10 09:10:13;;;;;;;;;;;;;;;0.45;100.00;97068.31;110537;1240;59672;-61
2023/12/10 09:12:42;;;;;;;;;;;;;;;0.57;100.00;97063.46;110406;1242;60446;-61
2023/12/10 09:15:11;;;;;;;;;;;;;;;0.58;100.00;97050.55;110403;1238;71196;-61
2023/12/10 09:17:40;;;;;;;;;;;;;;;0.60;100.00;97046.69;110470;1241;68822;-61
2023/12/10 09:20:09;;;;;;;;;;;;;;;0.72;100.00;97041.05;110496;1240;69237;-62
2023/12/10 09:22:38;;;;;;;;;;;;;;;0.86;100.00;97037.78;110494;1241;60164;-62
2023/12/10 09:25:08;;;;;;;;;;;;;;;1.01;100.00;97034.94;110562;1241;59658;-62
2023/12/10 09:27:39;;;;;;;;;;;;;;;1.07;100.00;97031.80;110350;1238;71960;-62
2023/12/10 09:30:08;;;;;;;;;;;;;;;1.10;100.00;97030.13;110409;1241;69278;-61
2023/12/10 09:32:39;;;;;;;;;;;;;;;1.16;100.00;97024.35;110474;1240;69906;-62
2023/12/10 09:35:08;;;;;;;;;;;;;;;1.20;100.00;97018.02;110518;1241;59668;-63
2023/12/10 09:37:39;;;;;;;;;;;;;;;1.22;100.00;97018.10;110531;1238;59758;-62
2023/12/10 09:40:09;;;;;;;;;;;;;;;1.21;100.00;97010.08;110430;1240;71995;-63
2023/12/10 09:42:38;;;;;;;;;;;;;;;1.25;100.00;97003.23;110529;1241;69839;-61
2023/12/10 09:45:07;;;;;;;;;;;;;;;1.24;100.00;97004.13;110504;1241;68385;-63
2023/12/10 09:47:36;;;;;;;;;;;;;;;1.19;100.00;97009.62;110635;1242;59701;-62
2023/12/10 09:50:06;;;;;;;;;;;;;;;1.15;100.00;97006.23;110655;1238;59764;-62
2023/12/10 09:52:35;;;;;;;;;;;;;;;1.09;100.00;97003.38;110383;1240;71972;-63
2023/12/10 09:55:04;;;;;;;;;;;;;;;1.13;100.00;97002.65;110559;1241;69281;-63
2023/12/10 09:57:34;;;;;;;;;;;;;;;1.08;100.00;97007.73;110473;1238;69172;-63
2023/12/10 10:00:03;;;;;;;;;;;;;;;1.04;100.00;97007.71;110416;1242;60068;-63
2023/12/10 10:02:33;;;;;;;;;;;;;;;1.03;100.00;97006.89;110399;1241;59734;-62
2023/12/10 10:05:03;;;;;;;;;;;;;;;1.08;100.00;97005.31;110386;1240;71463;-63
2023/12/10 10:07:32;;;;;;;;;;;;;;;1.12;100.00;97003.45;110411;1241;69855;-63
2023/12/10 10:10:01;;;;;;;;;;;;;;;1.11;100.00;97002.59;110439;1238;69882;-62
2023/12/10 10:12:30;;;;;;;;;;;;;;;1.05;100.00;97000.95;110528;1238;59679;-63
2023/12/10 10:15:00;;;;;;;;;;;;;;;1.00;100.00;97002.02;110558;1238;59626;-62
2023/12/10 10:17:36;;;;;;;;;;;;;;;0.97;100.00;97000.42;110553;1241;71990;-62
2023/12/10 10:20:06;;;;;;;;;;;;;;;0.97;100.00;97003.19;110576;1241;68618;-63
2023/12/10 10:22:35;;;;;;;;;;;;;;;0.99;100.00;97007.54;110396;1238;69854;-63
2023/12/10 10:25:06;;;;;;;;;;;;;;;1.10;100.00;97004.88;110524;1246;59670;-62
2023/12/10 10:27:34;;;;;;;;;;;;;;;1.15;100.00;97002.59;110420;1238;59672;-63
2023/12/10 10:30:04;;;;;;;;;;;;;;;1.19;100.00;97005.70;110561;1238;71264;-62
2023/12/10 10:32:33;;;;;;;;;;;;;;;1.14;100.00;97009.15;110424;1241;69600;-62
2023/12/10 10:35:03;;;;;;;;;;;;;;;1.17;100.00;97004.05;110560;1241;69290;-62
2023/12/10 10:37:32;;;;;;;;;;;;;;;1.14;100.00;97000.23;110444;1242;60121;-63
2023/12/10 10:40:02;;;;;;;;;;;;;;;1.12;100.00;97001.88;110554;1238;59695;-63
2023/12/10 10:42:31;;;;;;;;;;;;;;;1.02;100.00;97000.56;110598;1239;71817;-63
2023/12/10 10:45:06;;;;;;;;;;;;;;;0.92;100.00;96997.39;110599;1239;69762;-63
2023/12/10 10:47:36;;;;;;;;;;;;;;;0.81;100.00;96992.16;110448;1239;68536;-62
2023/12/10 10:50:06;;;;;;;;;;;;;;;0.79;100.00;96987.27;110551;1238;59690;-63
2023/12/10 10:52:53;;;;;;;;;;;;;;;0.82;100.00;96986.79;110682;1239;59631;-63
2023/12/10 10:55:22;;;;;;;;;;;;;;;0.92;100.00;96984.00;110547;1238;71321;-63
2023/12/10 10:57:54;;;;;;;;;;;;;;;0.97;100.00;96976.38;110536;1237;69368;-63
2023/12/10 11:00:23;;;;;;;;;;;;;;;1.01;100.00;96973.66;110566;1244;69860;-62
2023/12/10 11:02:53;;;;;;;;;;;;;;;1.12;100.00;96973.71;110605;1245;59666;-62
2023/12/10 11:05:32;;;;;;;;;;;;;;;1.06;100.00;96974.51;110557;1239;59662;-62
2023/12/10 11:08:03;;;;;;;;;;;;;;;0.94;100.00;96977.58;110688;1239;71472;-62
2023/12/10 11:10:34;;;;;;;;;;;;;;;0.79;100.00;96976.11;110552;1239;68215;-62
2023/12/10 11:13:03;;;;;;;;;;;;;;;0.80;100.00;96975.58;110599;1237;69092;-62
2023/12/10 11:15:32;;;;;;;;;;;;;;;0.88;100.00;96975.41;110612;1238;59760;-62
2023/12/10 11:18:01;;;;;;;;;;;;;;;1.03;100.00;96974.10;110679;1239;59654;-62
2023/12/10 11:20:34;;;;;;;;;;;;;;;1.06;100.00;96976.73;110590;1239;72347;-62
2023/12/10 11:23:10;;;;;;;;;;;;;;;1.03;100.00;96975.98;110514;1239;69830;-62
2023/12/10 11:25:40;;;;;;;;;;;;;;;1.05;100.00;96977.27;110542;1239;69257;-62
2023/12/10 11:28:14;;;;;;;;;;;;;;;1.14;100.00;96979.84;110564;1237;60075;-62
2023/12/10 11:30:45;;;;;;;;;;;;;;;1.22;100.00;96975.69;110499;1237;60022;-62
2023/12/10 11:33:14;;;;;;;;;;;;;;;1.24;100.00;96972.69;110512;1239;72041;-62
2023/12/10 11:35:44;;;;;;;;;;;;;;;1.24;100.00;96978.35;110521;1240;70283;-62
2023/12/10 11:38:33;;;;;;;;;;;;;;;1.25;100.00;96985.36;110451;1237;69771;-62
2023/12/10 11:41:02;;;;;;;;;;;;;;;1.26;100.00;96984.80;110481;1239;59698;-62
2023/12/10 11:43:31;;;;;;;;;;;;;;;1.21;100.00;96980.21;110518;1239;59711;-62
2023/12/10 11:46:01;;;;;;;;;;;;;;;1.23;100.00;96971.20;110481;1238;71959;-62
2023/12/10 11:48:30;;;;;;;;;;;;;;;1.26;100.00;96969.38;110473;1239;69477;-62
2023/12/10 11:51:00;;;;;;;;;;;;;;;1.30;100.00;96967.83;110480;1239;69858;-62
2023/12/10 11:53:30;;;;;;;;;;;;;;;1.31;100.00;96965.39;110562;1239;59741;-62
2023/12/10 11:55:59;;;;;;;;;;;;;;;1.30;100.00;96970.55;110750;1239;59702;-63
2023/12/10 11:58:32;;;;;;;;;;;;;;;1.21;100.00;96970.75;110583;1238;71821;-63
2023/12/10 12:01:01;;;;;;;;;;;;;;;1.20;100.00;96970.48;110586;1237;67711;-63
2023/12/10 12:03:32;;;;;;;;;;;;;;;1.20;100.00;96972.17;110559;1239;69393;-63
2023/12/10 12:06:04;;;;;;;;;;;;;;;1.25;100.00;96974.54;110545;1238;59677;-62
2023/12/10 12:08:33;;;;;;;;;;;;;;;1.27;100.00;96983.41;110596;1239;60085;-63
2023/12/10 12:11:02;;;;;;;;;;;;;;;1.20;100.00;96986.47;110567;1239;72101;-63
2023/12/10 12:13:31;;;;;;;;;;;;;;;1.17;100.00;96986.90;110625;1240;69828;-63
2023/12/10 12:16:00;;;;;;;;;;;;;;;1.21;100.00;96993.61;110507;1239;70151;-63
2023/12/10 12:18:30;;;;;;;;;;;;;;;1.14;100.00;96998.02;110499;1239;59667;-63
2023/12/10 12:20:59;;;;;;;;;;;;;;;1.02;100.00;97001.08;110518;1239;59727;-63
2023/12/10 12:23:28;;;;;;;;;;;;;;;1.10;100.00;96993.23;110531;1239;71371;-63
2023/12/10 12:25:57;;;;;;;;;;;;;;;1.02;100.00;96993.73;110668;1239;69073;-63
2023/12/10 12:28:26;;;;;;;;;;;;;;;1.00;100.00;96992.91;110506;1239;68563;-63
2023/12/10 12:30:55;;;;;;;;;;;;;;;1.10;100.00;96998.70;110622;1238;59734;-63
2023/12/10 12:33:24;;;;;;;;;;;;;;;1.12;100.00;97002.57;110511;1239;59984;-63
2023/12/10 12:35:53;;;;;;;;;;;;;;;1.20;100.00;97004.11;110698;1238;70626;-63
2023/12/10 12:38:22;;;;;;;;;;;;;;;1.27;100.00;97000.03;110656;1238;69110;-63